Time;durP1;ratioP1;P1;durP2;ratioP2;P2;SDS_P1;SDS_P2;PMS_P1;PMS_P2;Temp;Humidity;BMP_temperature;BMP_pressure;BME280_temperature;BME280_humidity;BME280_pressure;Samples;Min_cycle;Max_cycle;Signal;HPM_P1;HPM_P2
2021/01/19 00:00:17;;;;;;;4.47;3.65;;;21.40;28.50;;;;;;5092906;28;20086;-61
2021/01/19 00:02:44;;;;;;;4.07;3.55;;;21.40;28.50;;;;;;5110879;28;20051;-61
2021/01/19 00:05:11;;;;;;;5.13;3.85;;;21.40;28.40;;;;;;5111102;28;20067;-61
2021/01/19 00:07:38;;;;;;;3.85;3.45;;;21.40;28.40;;;;;;5110467;28;20039;-61
2021/01/19 00:10:08;;;;;;;4.28;3.88;;;21.40;28.40;;;;;;5111137;28;20150;-61
2021/01/19 00:12:35;;;;;;;4.13;3.72;;;21.40;28.40;;;;;;5092844;28;20050;-60
2021/01/19 00:15:03;;;;;;;4.03;3.60;;;21.40;28.40;;;;;;5111068;28;20044;-60
2021/01/19 00:17:31;;;;;;;4.53;4.03;;;21.40;28.40;;;;;;5110843;28;20120;-61
2021/01/19 00:19:57;;;;;;;4.38;3.60;;;21.40;28.40;;;;;;5110484;28;20516;-61
2021/01/19 00:22:24;;;;;;;4.32;3.50;;;21.40;28.40;;;;;;5110083;28;20051;-60
2021/01/19 00:24:51;;;;;;;4.05;3.50;;;21.40;28.40;;;;;;5091366;28;20082;-61
2021/01/19 00:27:17;;;;;;;4.22;3.72;;;21.30;28.40;;;;;;5111106;28;20458;-61
2021/01/19 00:29:44;;;;;;;5.40;4.03;;;21.30;28.40;;;;;;5110394;28;20067;-61
2021/01/19 00:32:11;;;;;;;4.47;3.38;;;21.30;28.50;;;;;;5110530;28;20146;-60
2021/01/19 00:34:37;;;;;;;4.13;3.72;;;21.30;28.50;;;;;;5109527;28;20143;-61
2021/01/19 00:37:04;;;;;;;4.45;3.53;;;21.30;28.50;;;;;;5109802;28;20071;-61
2021/01/19 00:39:31;;;;;;;4.28;3.88;;;21.30;28.50;;;;;;5110729;28;20585;-61
2021/01/19 00:41:57;;;;;;;5.00;3.90;;;21.30;28.50;;;;;;5110590;28;20127;-61
2021/01/19 00:44:24;;;;;;;4.45;3.67;;;21.30;28.50;;;;;;5110246;28;20067;-60
2021/01/19 00:46:51;;;;;;;4.15;3.47;;;21.30;28.50;;;;;;5109671;28;20074;-60
2021/01/19 00:49:19;;;;;;;4.50;3.78;;;21.30;28.50;;;;;;5110403;28;20146;-61
2021/01/19 00:51:45;;;;;;;3.65;3.35;;;21.30;28.50;;;;;;5109827;28;20131;-63
2021/01/19 00:54:12;;;;;;;4.20;3.55;;;21.30;28.50;;;;;;5110178;28;20039;-60
2021/01/19 00:56:41;;;;;;;4.35;3.30;;;21.30;28.50;;;;;;5091532;28;20099;-61
2021/01/19 00:59:08;;;;;;;3.80;3.45;;;21.30;28.40;;;;;;5091930;28;20053;-61
2021/01/19 01:01:43;;;;;;;3.38;2.95;;;21.30;28.40;;;;;;5109577;28;20473;-61
2021/01/19 01:04:10;;;;;;;4.10;3.70;;;21.30;28.40;;;;;;5109324;28;20618;-61
2021/01/19 01:06:37;;;;;;;4.15;3.47;;;21.30;28.40;;;;;;5109566;28;20054;-61
2021/01/19 01:09:04;;;;;;;4.75;3.75;;;21.30;28.40;;;;;;5109037;28;20047;-60
2021/01/19 01:11:39;;;;;;;3.85;3.35;;;21.40;28.40;;;;;;5109508;28;20108;-60
2021/01/19 01:14:07;;;;;;;3.15;2.85;;;21.30;28.40;;;;;;5109544;28;20124;-61
2021/01/19 01:16:35;;;;;;;3.63;3.10;;;21.30;28.40;;;;;;5109533;28;20607;-60
2021/01/19 01:19:03;;;;;;;3.65;3.08;;;21.30;28.40;;;;;;5109475;28;20046;-61
2021/01/19 01:21:33;;;;;;;3.85;3.40;;;21.30;28.40;;;;;;5108380;28;20079;-60
2021/01/19 01:24:00;;;;;;;3.80;3.45;;;21.30;28.40;;;;;;5109822;28;20102;-60
2021/01/19 01:26:27;;;;;;;3.55;3.25;;;21.20;28.40;;;;;;5109587;28;20107;-61
2021/01/19 01:28:53;;;;;;;3.47;3.13;;;21.20;28.40;;;;;;5109326;28;20055;-61
2021/01/19 01:31:21;;;;;;;4.10;3.42;;;21.20;28.40;;;;;;5109369;28;20065;-61
2021/01/19 01:33:48;;;;;;;3.95;3.53;;;21.20;28.40;;;;;;5109138;28;20040;-61
2021/01/19 01:36:15;;;;;;;3.22;2.92;;;21.20;28.40;;;;;;5109363;28;20075;-61
2021/01/19 01:38:42;;;;;;;3.97;3.35;;;21.20;28.40;;;;;;5108711;28;20070;-61
2021/01/19 01:41:23;;;;;;;3.92;3.53;;;21.20;28.40;;;;;;5109178;28;20130;-60
2021/01/19 01:43:50;;;;;;;4.35;3.65;;;21.20;28.40;;;;;;5108358;28;20085;-61
2021/01/19 01:46:18;;;;;;;3.55;3.22;;;21.20;28.40;;;;;;5109157;28;20077;-60
2021/01/19 01:48:46;;;;;;;3.72;3.20;;;21.20;28.40;;;;;;5109111;28;20044;-60
2021/01/19 01:51:14;;;;;;;3.72;3.25;;;21.20;28.40;;;;;;5108798;28;20441;-61
2021/01/19 01:53:42;;;;;;;4.82;4.10;;;21.20;28.40;;;;;;5109455;28;20428;-61
2021/01/19 01:56:11;;;;;;;3.90;3.42;;;21.30;28.40;;;;;;5107820;28;20150;-61
2021/01/19 01:58:38;;;;;;;3.72;3.30;;;21.30;28.40;;;;;;5108958;28;20488;-61
2021/01/19 02:01:05;;;;;;;3.28;2.97;;;21.30;28.40;;;;;;5108931;28;20139;-60
2021/01/19 02:03:35;;;;;;;4.15;3.55;;;21.30;28.30;;;;;;5108224;28;20126;-61
2021/01/19 02:06:02;;;;;;;5.10;3.70;;;21.30;28.30;;;;;;5107599;28;20075;-60
2021/01/19 02:09:05;;;;;;;3.92;3.53;;;21.20;28.30;;;;;;5108005;28;20501;-61
2021/01/19 02:11:53;;;;;;;3.72;3.42;;;21.20;28.30;;;;;;5107564;28;20382;-60
2021/01/19 02:14:39;;;;;;;3.20;2.88;;;21.20;28.30;;;;;;5108397;28;20421;-61
2021/01/19 02:17:45;;;;;;;4.28;3.42;;;21.20;28.30;;;;;;5107743;28;20047;-60
2021/01/19 02:20:46;;;;;;;3.60;3.30;;;21.20;28.30;;;;;;5080559;28;20043;-61
2021/01/19 02:23:37;;;;;;;3.53;3.22;;;21.20;28.40;;;;;;5108333;28;20213;-61
2021/01/19 02:26:41;;;;;;;4.00;3.28;;;21.20;28.40;;;;;;5107882;28;20067;-61
2021/01/19 02:29:48;;;;;;;3.20;2.90;;;21.10;28.30;;;;;;5096060;28;20404;-61
2021/01/19 02:32:54;;;;;;;3.63;2.83;;;21.10;28.30;;;;;;5107550;28;20074;-60
2021/01/19 02:35:28;;;;;;;3.00;2.80;;;21.10;28.30;;;;;;5096238;28;20051;-60
2021/01/19 02:38:07;;;;;;;3.35;3.05;;;21.10;28.40;;;;;;5107841;28;20524;-60
2021/01/19 02:40:34;;;;;;;2.60;2.40;;;21.10;28.40;;;;;;5108245;28;20057;-61
2021/01/19 02:43:11;;;;;;;3.10;2.80;;;21.10;28.40;;;;;;5108343;28;20524;-61
2021/01/19 02:45:38;;;;;;;2.97;2.78;;;21.10;28.40;;;;;;5107562;28;20265;-61
2021/01/19 02:48:05;;;;;;;3.53;3.20;;;21.10;28.30;;;;;;5106924;28;20495;-60
2021/01/19 02:50:32;;;;;;;3.00;2.65;;;21.20;28.40;;;;;;5089134;28;20131;-61
2021/01/19 02:53:00;;;;;;;3.33;3.03;;;21.20;28.30;;;;;;5108052;28;20075;-61
2021/01/19 02:55:28;;;;;;;2.95;2.75;;;21.20;28.30;;;;;;5107621;28;20051;-61
2021/01/19 02:58:24;;;;;;;3.58;3.17;;;21.10;28.30;;;;;;5089908;28;20135;-61
2021/01/19 03:01:06;;;;;;;3.33;3.03;;;21.20;28.30;;;;;;5107519;28;20134;-61
2021/01/19 03:03:35;;;;;;;3.65;3.13;;;21.20;28.30;;;;;;5108477;28;20044;-61
2021/01/19 03:06:09;;;;;;;3.78;3.03;;;21.10;28.30;;;;;;5107735;28;20044;-61
2021/01/19 03:08:38;;;;;;;3.60;3.22;;;21.10;28.30;;;;;;5108359;28;20085;-60
2021/01/19 03:11:06;;;;;;;3.27;2.97;;;21.10;28.30;;;;;;5089385;28;20039;-61
2021/01/19 03:13:33;;;;;;;3.67;3.20;;;21.10;28.30;;;;;;5107640;28;20051;-61
2021/01/19 03:16:08;;;;;;;3.20;2.90;;;21.10;28.30;;;;;;5107473;28;20056;-60
2021/01/19 03:18:36;;;;;;;3.45;3.15;;;21.10;28.30;;;;;;5108155;28;20066;-60
2021/01/19 03:21:06;;;;;;;3.30;2.95;;;21.10;28.30;;;;;;5106533;28;20043;-61
2021/01/19 03:23:36;;;;;;;3.47;2.85;;;21.10;28.30;;;;;;5108486;28;20112;-60
2021/01/19 03:26:03;;;;;;;;;;;21.10;28.30;;;;;;5108403;28;20071;-60
2021/01/19 03:28:33;;;;;;;3.47;2.85;;;21.10;28.30;;;;;;5109099;28;19955;-61
2021/01/19 03:31:01;;;;;;;3.78;3.15;;;21.10;28.30;;;;;;5112711;28;20135;-61
2021/01/19 03:33:29;;;;;;;3.33;3.00;;;21.00;28.30;;;;;;5113769;28;20044;-60
2021/01/19 03:35:56;;;;;;;3.65;3.08;;;21.10;28.40;;;;;;5115295;28;20079;-60
2021/01/19 03:38:23;;;;;;;3.60;2.72;;;21.10;28.40;;;;;;5114973;28;20075;-61
2021/01/19 03:40:49;;;;;;;4.57;2.95;;;21.10;28.30;;;;;;5113946;28;20094;-61
2021/01/19 03:43:17;;;;;;;3.58;3.00;;;21.10;28.30;;;;;;5115126;28;20130;-64
2021/01/19 03:45:43;;;;;;;3.25;2.95;;;21.10;28.30;;;;;;5114559;28;20071;-61
2021/01/19 03:48:10;;;;;;;3.80;3.08;;;21.10;28.20;;;;;;5115579;28;20149;-60
2021/01/19 03:50:37;;;;;;;2.60;2.40;;;21.10;28.20;;;;;;5116905;28;20236;-60
2021/01/19 03:53:04;;;;;;;3.42;3.13;;;21.10;28.20;;;;;;5113148;28;20415;-61
2021/01/19 03:55:31;;;;;;;3.13;2.70;;;21.10;28.20;;;;;;5111337;28;20121;-61
2021/01/19 03:57:59;;;;;;;3.42;2.90;;;21.10;28.20;;;;;;5111275;28;20089;-61
2021/01/19 04:00:29;;;;;;;3.35;3.05;;;21.10;28.20;;;;;;5111004;28;20528;-61
2021/01/19 04:02:56;;;;;;;3.78;3.10;;;21.10;28.30;;;;;;5111067;28;20112;-60
2021/01/19 04:05:23;;;;;;;3.50;3.08;;;21.00;28.30;;;;;;5111452;28;20445;-60
2021/01/19 04:07:50;;;;;;;3.00;2.70;;;21.00;28.30;;;;;;5110800;28;20079;-61
2021/01/19 04:10:16;;;;;;;2.95;2.75;;;21.00;28.30;;;;;;5110768;28;20083;-61
2021/01/19 04:12:46;;;;;;;3.27;2.77;;;21.00;28.30;;;;;;5111047;28;20047;-61
2021/01/19 04:15:13;;;;;;;3.58;3.28;;;21.00;28.30;;;;;;5092083;28;20051;-61
2021/01/19 04:17:41;;;;;;;3.25;2.95;;;21.00;28.30;;;;;;5111233;28;20047;-63
2021/01/19 04:20:08;;;;;;;3.42;3.13;;;21.00;28.30;;;;;;5110461;28;20456;-60
2021/01/19 04:22:35;;;;;;;3.65;3.35;;;21.00;28.30;;;;;;5110736;28;20438;-61
2021/01/19 04:25:04;;;;;;;2.88;2.67;;;21.00;28.30;;;;;;5109621;28;20090;-61
2021/01/19 04:27:31;;;;;;;3.03;2.80;;;21.00;28.30;;;;;;5109979;28;20589;-61
2021/01/19 04:29:58;;;;;;;2.70;2.50;;;21.00;28.30;;;;;;5109917;28;20051;-61
2021/01/19 04:32:25;;;;;;;2.85;2.65;;;21.00;28.30;;;;;;5109909;28;20462;-60
2021/01/19 04:34:51;;;;;;;3.72;3.28;;;21.10;28.30;;;;;;5111022;28;20485;-60
2021/01/19 04:37:18;;;;;;;2.92;2.72;;;21.10;28.20;;;;;;5110048;28;20097;-61
2021/01/19 04:39:44;;;;;;;3.35;3.05;;;21.10;28.30;;;;;;5090799;28;20507;-61
2021/01/19 04:42:17;;;;;;;3.42;3.13;;;21.10;28.20;;;;;;5109550;28;20047;-60
2021/01/19 04:44:44;;;;;;;3.47;3.08;;;21.10;28.20;;;;;;5110895;28;20066;-61
2021/01/19 04:47:12;;;;;;;2.88;2.30;;;21.10;28.20;;;;;;5110026;28;20134;-60
2021/01/19 04:49:39;;;;;;;3.10;2.85;;;21.10;28.20;;;;;;5092382;28;20043;-60
2021/01/19 04:52:07;;;;;;;2.97;2.70;;;21.00;28.20;;;;;;5091880;28;20079;-61
2021/01/19 04:55:00;;;;;;;3.08;2.78;;;21.00;28.20;;;;;;5110192;28;20123;-61
2021/01/19 04:57:31;;;;;;;3.38;2.72;;;21.00;28.20;;;;;;5109478;28;20059;-61
2021/01/19 05:00:16;;;;;;;3.13;2.83;;;21.00;28.20;;;;;;5076479;27;20339;-61
2021/01/19 05:03:12;;;;;;;2.70;2.50;;;21.00;28.20;;;;;;5119715;27;20138;-61
2021/01/19 05:06:12;;;;;;;3.17;2.88;;;21.00;28.20;;;;;;5118701;27;20122;-61
2021/01/19 05:08:54;;;;;;;2.92;2.63;;;21.00;28.20;;;;;;5118717;27;20578;-60
2021/01/19 05:11:27;;;;;;;2.75;2.53;;;21.00;28.20;;;;;;5130790;27;20135;-61
2021/01/19 05:14:02;;;;;;;3.60;2.72;;;21.00;28.70;;;;;;5130065;27;20141;-61
2021/01/19 05:16:36;;;;;;;2.60;2.40;;;20.90;28.20;;;;;;5130359;27;20469;-61
2021/01/19 05:19:05;;;;;;;3.58;2.70;;;21.00;28.30;;;;;;5094807;27;20438;-60
2021/01/19 05:21:37;;;;;;;3.08;2.78;;;20.90;28.20;;;;;;5129381;27;20047;-60
2021/01/19 05:24:04;;;;;;;2.95;2.60;;;21.00;28.30;;;;;;5130363;27;20216;-61
2021/01/19 05:26:33;;;;;;;2.40;2.20;;;21.00;28.30;;;;;;5129955;27;20227;-61
2021/01/19 05:29:05;;;;;;;3.20;2.90;;;21.00;28.30;;;;;;5130292;27;20089;-60
2021/01/19 05:31:32;;;;;;;3.00;2.70;;;21.00;28.20;;;;;;5130233;27;20104;-65
2021/01/19 05:34:03;;;;;;;3.08;2.78;;;21.00;28.20;;;;;;5129832;27;20092;-61
2021/01/19 05:36:40;;;;;;;2.78;2.58;;;21.00;28.20;;;;;;5129832;27;20102;-61
2021/01/19 05:39:10;;;;;;;2.60;2.40;;;21.00;28.20;;;;;;5129659;27;20103;-61
2021/01/19 05:41:45;;;;;;;3.05;2.65;;;21.00;28.20;;;;;;5129447;27;20047;-61
2021/01/19 05:44:29;;;;;;;2.90;2.58;;;21.00;28.20;;;;;;5129130;27;20051;-61
2021/01/19 05:47:03;;;;;;;2.80;2.60;;;21.00;28.20;;;;;;5129401;27;20051;-61
2021/01/19 05:49:40;;;;;;;3.08;2.78;;;21.00;28.20;;;;;;5129707;27;20133;-64
2021/01/19 05:52:15;;;;;;;3.28;2.97;;;20.90;28.10;;;;;;5127630;27;20081;-60
2021/01/19 05:54:47;;;;;;;3.47;2.92;;;20.90;28.20;;;;;;5118078;27;20047;-61
2021/01/19 05:57:16;;;;;;;3.25;2.95;;;20.90;28.20;;;;;;5106386;28;20131;-61
2021/01/19 05:59:45;;;;;;;3.38;2.92;;;20.90;28.20;;;;;;5095574;28;20153;-61
2021/01/19 06:02:14;;;;;;;3.58;3.20;;;20.90;28.20;;;;;;5097104;28;20386;-61
2021/01/19 06:04:47;;;;;;;3.42;3.13;;;20.90;28.20;;;;;;5105276;28;20070;-61
2021/01/19 06:07:22;;;;;;;2.85;2.65;;;20.90;28.20;;;;;;5102748;27;20155;-61
2021/01/19 06:09:49;;;;;;;3.45;2.83;;;20.90;28.20;;;;;;5095566;28;20482;-61
2021/01/19 06:12:18;;;;;;;3.70;3.22;;;20.90;28.10;;;;;;5093650;27;20040;-61
2021/01/19 06:14:52;;;;;;;4.20;3.80;;;20.90;28.00;;;;;;5101048;27;20428;-61
2021/01/19 06:17:21;;;;;;;4.40;3.60;;;20.90;27.90;;;;;;5078644;28;20059;-61
2021/01/19 06:19:51;;;;;;;4.43;3.70;;;20.90;27.80;;;;;;5058355;28;20048;-61
2021/01/19 06:22:21;;;;;;;4.97;3.95;;;20.90;27.70;;;;;;5077829;28;20109;-61
2021/01/19 06:24:50;;;;;;;5.05;4.28;;;20.90;27.50;;;;;;5075453;28;20785;-61
2021/01/19 06:27:32;;;;;;;5.28;4.10;;;20.90;27.60;;;;;;5081601;28;20119;-61
2021/01/19 06:30:10;;;;;;;5.88;4.57;;;21.00;27.60;;;;;;5076216;28;20666;-61
2021/01/19 06:32:46;;;;;;;6.35;5.03;;;21.00;27.60;;;;;;5070069;28;20544;-60
2021/01/19 06:35:19;;;;;;;5.95;5.18;;;21.10;27.60;;;;;;5054279;28;20046;-60
2021/01/19 06:37:48;;;;;;;5.07;4.38;;;21.20;27.60;;;;;;5070060;28;20075;-61
2021/01/19 06:40:17;;;;;;;6.47;5.10;;;21.30;27.50;;;;;;5071084;28;20082;-64
2021/01/19 06:43:05;;;;;;;5.95;5.05;;;21.30;27.40;;;;;;5077481;28;20052;-61
2021/01/19 06:45:32;;;;;;;6.20;5.13;;;21.40;27.40;;;;;;5073253;28;20086;-61
2021/01/19 06:48:02;;;;;;;6.40;5.15;;;21.50;27.30;;;;;;5072323;28;20444;-60
2021/01/19 06:50:37;;;;;;;6.18;5.35;;;21.60;27.30;;;;;;5066614;28;20071;-64
2021/01/19 06:53:23;;;;;;;7.50;5.57;;;21.70;27.30;;;;;;5069564;28;20059;-61
2021/01/19 06:56:11;;;;;;;6.50;5.38;;;21.80;27.20;;;;;;5068554;28;20048;-62
2021/01/19 06:58:51;;;;;;;7.78;5.63;;;21.90;27.20;;;;;;5060164;28;20610;-64
2021/01/19 07:01:23;;;;;;;5.63;4.90;;;22.00;27.10;;;;;;5073995;28;20563;-65
2021/01/19 07:04:24;;;;;;;7.28;5.43;;;22.00;27.00;;;;;;5086321;28;20111;-65
2021/01/19 07:07:31;;;;;;;7.47;5.45;;;22.10;27.00;;;;;;5065683;28;20544;-62
2021/01/19 07:10:14;;;;;;;6.75;5.68;;;22.20;27.00;;;;;;5056403;28;20071;-61
2021/01/19 07:13:03;;;;;;;8.57;5.45;;;22.30;26.90;;;;;;5071741;28;20151;-65
2021/01/19 07:16:03;;;;;;;6.72;5.18;;;22.40;26.80;;;;;;5060525;28;20742;-64
2021/01/19 07:19:02;;;;;;;6.47;5.60;;;22.50;26.70;;;;;;5075246;28;20552;-64
2021/01/19 07:22:02;;;;;;;7.47;6.28;;;22.50;27.00;;;;;;5069791;28;20040;-59
2021/01/19 07:24:38;;;;;;;7.35;5.22;;;22.60;26.80;;;;;;5069530;28;20127;-63
2021/01/19 07:27:10;;;;;;;11.07;5.30;;;22.70;27.00;;;;;;5037251;28;20163;-63
2021/01/19 07:29:39;;;;;;;6.65;5.65;;;22.70;27.00;;;;;;5052371;28;20053;-65
2021/01/19 07:32:12;;;;;;;7.60;5.72;;;22.80;27.20;;;;;;5040889;28;20690;-63
2021/01/19 07:34:41;;;;;;;6.85;5.63;;;22.90;27.40;;;;;;5058428;28;20049;-64
2021/01/19 07:37:11;;;;;;;17.40;6.32;;;23.00;27.30;;;;;;5059856;28;20179;-63
2021/01/19 07:39:38;;;;;;;8.07;5.88;;;23.10;27.30;;;;;;5059258;28;20494;-60
2021/01/19 07:42:13;;;;;;;9.38;5.70;;;23.10;27.50;;;;;;5058112;28;20186;-61
2021/01/19 07:44:42;;;;;;;7.90;5.57;;;23.10;27.50;;;;;;5060527;28;20041;-67
2021/01/19 07:47:12;;;;;;;;;;;23.20;27.60;;;;;;5044879;28;20049;-68
2021/01/19 07:49:39;;;;;;;7.18;5.82;;;23.30;27.70;;;;;;5061417;28;20039;-68
2021/01/19 07:52:14;;;;;;;10.93;5.85;;;23.30;27.40;;;;;;5072958;28;20067;-67
2021/01/19 07:54:42;;;;;;;7.80;6.30;;;23.40;27.30;;;;;;5057034;28;20559;-67
2021/01/19 07:57:16;;;;;;;9.82;5.78;;;23.40;27.10;;;;;;5058524;28;20603;-65
2021/01/19 07:59:44;;;;;;;8.57;5.85;;;23.40;27.00;;;;;;5041711;28;20052;-67
2021/01/19 08:02:25;;;;;;;9.00;5.97;;;23.50;26.90;;;;;;5061881;28;20049;-66
2021/01/19 08:05:01;;;;;;;7.10;5.85;;;23.50;26.80;;;;;;5060829;28;20094;-66
2021/01/19 08:07:40;;;;;;;6.13;5.25;;;23.60;26.60;;;;;;5057186;28;20108;-66
2021/01/19 08:10:29;;;;;;;8.50;5.65;;;23.60;26.60;;;;;;5046632;28;20071;-66
2021/01/19 08:12:58;;;;;;;8.05;5.90;;;23.60;26.50;;;;;;5054730;28;20113;-66
2021/01/19 08:15:33;;;;;;;7.32;6.18;;;23.70;26.60;;;;;;5058360;28;20098;-65
2021/01/19 08:18:14;;;;;;;8.52;5.65;;;23.70;26.70;;;;;;5057091;28;20183;-64
2021/01/19 08:20:52;;;;;;;6.40;5.40;;;23.70;26.80;;;;;;5056722;28;20052;-66
2021/01/19 08:23:24;;;;;;;7.53;5.80;;;23.60;26.80;;;;;;5060540;28;20478;-68
2021/01/19 08:25:50;;;;;;;7.30;5.75;;;23.60;26.80;;;;;;5059578;28;20048;-67
2021/01/19 08:28:19;;;;;;;7.53;5.78;;;23.60;26.80;;;;;;5059584;28;21444;-67
2021/01/19 08:30:47;;;;;;;7.22;6.32;;;23.60;26.80;;;;;;5039826;28;20156;-67
2021/01/19 08:33:14;;;;;;;8.20;7.07;;;23.60;26.80;;;;;;5057200;28;20646;-64
2021/01/19 08:35:42;;;;;;;7.80;6.22;;;23.60;26.80;;;;;;5060501;28;20882;-65
2021/01/19 08:38:10;;;;;;;7.80;6.15;;;23.60;26.80;;;;;;5052763;28;20041;-66
2021/01/19 08:40:40;;;;;;;7.30;6.05;;;23.60;26.90;;;;;;5054488;28;20048;-66
2021/01/19 08:43:07;;;;;;;;;;;23.60;27.00;;;;;;5040652;28;20123;-64
2021/01/19 08:45:39;;;;;;;7.60;5.93;;;23.70;27.10;;;;;;5060886;28;19958;-63
2021/01/19 08:48:10;;;;;;;7.18;5.47;;;23.70;27.20;;;;;;5055949;28;20049;-66
2021/01/19 08:50:41;;;;;;;7.35;5.70;;;23.70;27.00;;;;;;5056643;28;20044;-66
2021/01/19 08:53:12;;;;;;;8.13;6.33;;;23.80;27.00;;;;;;5039685;28;20146;-64
2021/01/19 08:55:42;;;;;;;10.82;6.20;;;23.80;27.00;;;;;;5060291;28;20048;-64
2021/01/19 08:58:18;;;;;;;7.50;5.95;;;23.80;27.00;;;;;;5076824;28;20074;-64
2021/01/19 09:00:44;;;;;;;7.30;6.35;;;23.80;27.00;;;;;;5077234;28;20056;-66
2021/01/19 09:03:18;;;;;;;7.82;6.15;;;23.80;26.90;;;;;;5070733;28;20086;-63
2021/01/19 09:06:06;;;;;;;7.70;6.10;;;23.80;26.90;;;;;;5060078;28;20144;-66
2021/01/19 09:08:38;;;;;;;7.82;5.80;;;23.90;26.70;;;;;;5059759;28;20056;-66
2021/01/19 09:11:08;;;;;;;7.93;6.18;;;23.80;26.50;;;;;;5057711;28;20139;-67
2021/01/19 09:13:45;;;;;;;8.15;6.43;;;23.90;26.50;;;;;;5056784;28;20142;-67
2021/01/19 09:16:24;;;;;;;6.65;5.63;;;23.80;26.40;;;;;;5054269;28;20619;-63
2021/01/19 09:18:53;;;;;;;7.70;6.32;;;23.90;26.50;;;;;;5052498;28;20040;-65
2021/01/19 09:21:23;;;;;;;6.32;5.70;;;23.90;26.50;;;;;;5059622;28;20047;-62
2021/01/19 09:23:49;;;;;;;7.20;5.78;;;23.90;26.50;;;;;;5058983;28;20110;-66
2021/01/19 09:26:16;;;;;;;7.38;6.20;;;23.90;26.60;;;;;;5059940;28;20493;-62
2021/01/19 09:28:43;;;;;;;7.72;6.60;;;23.90;26.90;;;;;;5043725;28;20055;-66
2021/01/19 09:31:14;;;;;;;6.88;5.93;;;23.90;26.90;;;;;;5062773;28;20068;-66
2021/01/19 09:33:42;;;;;;;9.13;6.15;;;24.00;27.00;;;;;;5056674;28;20082;-62
2021/01/19 09:36:10;;;;;;;8.07;6.53;;;24.00;27.00;;;;;;5058858;28;20052;-67
2021/01/19 09:38:38;;;;;;;6.57;5.75;;;24.10;27.00;;;;;;5041625;28;20451;-66
2021/01/19 09:41:06;;;;;;;6.55;5.50;;;24.10;27.00;;;;;;5054102;28;20139;-65
2021/01/19 09:43:34;;;;;;;7.68;5.70;;;24.10;26.90;;;;;;5056323;28;20058;-66
2021/01/19 09:46:04;;;;;;;6.28;5.68;;;24.10;26.80;;;;;;5052778;28;20135;-62
2021/01/19 09:48:32;;;;;;;;;;;24.10;26.80;;;;;;5058086;28;20059;-65
2021/01/19 09:51:04;;;;;;;6.40;5.68;;;24.10;26.80;;;;;;5053702;28;20073;-66
2021/01/19 09:53:42;;;;;;;6.97;5.25;;;24.20;26.90;;;;;;5053757;28;20159;-67
2021/01/19 09:56:16;;;;;;;6.82;5.75;;;24.10;26.90;;;;;;5053191;28;20127;-66
2021/01/19 09:58:43;;;;;;;9.55;5.88;;;24.20;27.00;;;;;;5055965;28;20044;-66
2021/01/19 10:01:21;;;;;;;7.15;6.10;;;24.20;26.90;;;;;;5057778;28;20100;-64
2021/01/19 10:03:49;;;;;;;6.00;5.40;;;24.20;26.90;;;;;;5054907;28;20050;-67
2021/01/19 10:06:25;;;;;;;7.40;5.82;;;24.20;26.80;;;;;;5074605;28;20725;-65
2021/01/19 10:08:56;;;;;;;7.00;5.78;;;24.20;26.70;;;;;;5075249;28;20051;-65
2021/01/19 10:11:33;;;;;;;6.75;5.65;;;24.20;26.80;;;;;;5053971;28;20409;-65
2021/01/19 10:14:14;;;;;;;6.35;5.60;;;24.20;26.80;;;;;;5072944;28;20045;-62
2021/01/19 10:16:49;;;;;;;8.00;5.90;;;24.20;26.90;;;;;;5055916;28;20680;-65
2021/01/19 10:19:21;;;;;;;7.63;6.25;;;24.30;26.80;;;;;;5057223;28;20048;-66
2021/01/19 10:21:50;;;;;;;7.32;5.45;;;24.30;26.70;;;;;;5036823;28;20511;-66
2021/01/19 10:24:18;;;;;;;6.45;5.72;;;24.30;26.70;;;;;;5056818;28;20119;-65
2021/01/19 10:27:04;;;;;;;6.05;5.45;;;24.30;26.60;;;;;;5059739;28;20076;-65
2021/01/19 10:29:38;;;;;;;7.55;6.43;;;24.30;26.60;;;;;;5056991;28;20091;-65
2021/01/19 10:32:08;;;;;;;7.25;6.35;;;24.30;26.60;;;;;;5058186;28;20109;-66
2021/01/19 10:34:35;;;;;;;8.50;5.85;;;24.30;26.60;;;;;;5055493;28;20052;-70
2021/01/19 10:37:03;;;;;;;6.90;5.68;;;24.30;26.70;;;;;;5057798;28;20045;-68
2021/01/19 10:39:30;;;;;;;8.45;6.07;;;24.30;26.70;;;;;;5057292;28;20106;-64
2021/01/19 10:41:58;;;;;;;7.60;5.55;;;24.30;26.70;;;;;;5055694;28;20045;-65
2021/01/19 10:44:25;;;;;;;6.38;4.95;;;24.30;26.70;;;;;;5076651;28;20101;-65
2021/01/19 10:46:57;;;;;;;6.53;5.50;;;24.30;26.70;;;;;;5055800;28;20143;-63
2021/01/19 10:49:30;;;;;;;6.00;5.15;;;24.30;26.70;;;;;;5057215;28;20056;-64
2021/01/19 10:51:58;;;;;;;8.18;5.38;;;24.30;26.60;;;;;;5055450;28;20471;-64
2021/01/19 10:54:25;;;;;;;5.78;4.93;;;24.40;26.60;;;;;;5052972;28;20056;-64
2021/01/19 10:57:05;;;;;;;5.95;5.03;;;24.40;26.50;;;;;;5039642;28;20474;-64
2021/01/19 10:59:33;;;;;;;6.43;5.15;;;24.40;26.50;;;;;;5062407;28;20218;-60
2021/01/19 11:02:03;;;;;;;5.57;4.57;;;24.40;26.50;;;;;;5059647;28;20048;-63
2021/01/19 11:04:30;;;;;;;6.35;4.65;;;24.50;26.60;;;;;;5060026;28;20057;-61
2021/01/19 11:06:59;;;;;;;8.00;5.13;;;24.50;26.70;;;;;;5059350;28;20040;-65
2021/01/19 11:09:26;;;;;;;5.05;4.55;;;24.50;26.70;;;;;;5059905;28;20076;-61
2021/01/19 11:11:53;;;;;;;6.25;5.00;;;24.50;26.70;;;;;;5062503;28;21309;-61
2021/01/19 11:14:19;;;;;;;5.53;4.78;;;24.50;26.60;;;;;;5058671;28;20084;-64
2021/01/19 11:16:46;;;;;;;4.90;4.43;;;24.50;26.60;;;;;;5057961;28;20053;-64
2021/01/19 11:19:14;;;;;;;4.75;4.25;;;24.50;26.60;;;;;;5062021;28;20040;-64
2021/01/19 11:21:42;;;;;;;4.65;4.13;;;24.50;26.50;;;;;;5058707;28;20094;-62
2021/01/19 11:24:11;;;;;;;5.20;4.70;;;24.50;26.50;;;;;;5059850;28;20059;-61
2021/01/19 11:26:41;;;;;;;4.93;4.43;;;24.50;26.50;;;;;;5061720;28;20053;-62
2021/01/19 11:29:26;;;;;;;6.35;4.25;;;24.50;26.50;;;;;;5063710;28;20080;-65
2021/01/19 11:31:53;;;;;;;4.88;4.30;;;24.50;25.90;;;;;;5056224;28;20116;-65
2021/01/19 11:34:19;;;;;;;5.95;4.85;;;24.50;25.80;;;;;;5062876;28;20505;-61
2021/01/19 11:36:46;;;;;;;4.35;3.90;;;24.50;25.50;;;;;;5066364;28;20032;-61
2021/01/19 11:39:14;;;;;;;4.78;4.30;;;24.50;25.60;;;;;;5041623;28;20080;-64
2021/01/19 11:41:42;;;;;;;6.35;4.47;;;24.50;25.80;;;;;;5063078;28;20140;-61
2021/01/19 11:44:10;;;;;;;5.25;4.28;;;24.50;25.90;;;;;;5058748;28;20044;-60
2021/01/19 11:46:38;;;;;;;6.43;4.13;;;24.50;26.00;;;;;;5056162;28;20141;-65
2021/01/19 11:49:06;;;;;;;4.57;4.10;;;24.50;26.10;;;;;;5049496;28;20099;-64
2021/01/19 11:51:35;;;;;;;4.35;3.95;;;24.50;26.20;;;;;;5060367;28;20135;-61
2021/01/19 11:54:09;;;;;;;5.38;4.63;;;24.50;26.20;;;;;;5058239;28;20045;-61
2021/01/19 11:56:38;;;;;;;5.35;4.40;;;24.60;26.20;;;;;;5039273;28;20048;-65
2021/01/19 11:59:06;;;;;;;3.87;3.47;;;24.60;26.20;;;;;;5065367;28;20056;-62
2021/01/19 12:01:33;;;;;;;6.30;4.00;;;24.60;26.20;;;;;;5079722;28;20044;-64
2021/01/19 12:04:01;;;;;;;4.78;3.65;;;24.70;26.40;;;;;;5077341;28;20048;-62
2021/01/19 12:06:33;;;;;;;5.20;4.32;;;24.70;26.60;;;;;;5078378;28;20153;-60
2021/01/19 12:09:00;;;;;;;5.32;3.92;;;24.70;26.70;;;;;;5078507;28;20080;-64
2021/01/19 12:11:26;;;;;;;5.07;4.13;;;24.70;26.60;;;;;;5078920;28;20045;-66
2021/01/19 12:13:53;;;;;;;4.18;3.78;;;24.80;26.60;;;;;;5075819;28;20116;-65
2021/01/19 12:16:21;;;;;;;3.95;3.55;;;24.80;26.60;;;;;;5062467;28;20065;-65
2021/01/19 12:18:50;;;;;;;5.70;4.10;;;24.80;26.60;;;;;;5076649;28;20480;-67
2021/01/19 12:21:21;;;;;;;4.50;3.60;;;24.80;26.60;;;;;;5061681;28;20052;-65
2021/01/19 12:23:48;;;;;;;5.35;4.05;;;24.80;26.80;;;;;;5075978;28;20053;-63
2021/01/19 12:26:17;;;;;;;5.60;4.57;;;24.80;27.10;;;;;;5060588;28;20075;-65
2021/01/19 12:28:44;;;;;;;4.18;3.78;;;24.80;27.30;;;;;;5062606;28;20057;-65
2021/01/19 12:31:39;;;;;;;5.50;3.85;;;24.90;27.50;;;;;;5058232;28;20049;-62
2021/01/19 12:34:22;;;;;;;3.67;3.30;;;24.90;27.60;;;;;;5075206;28;20474;-62
2021/01/19 12:41:15;;;;;;;4.95;3.55;;;24.90;27.60;;;;;;5057493;28;20040;-67
2021/01/19 12:43:43;;;;;;;4.35;3.45;;;25.00;27.60;;;;;;5072374;28;20099;-66
2021/01/19 12:46:11;;;;;;;9.18;3.70;;;25.00;27.50;;;;;;5057306;28;20486;-62
2021/01/19 12:48:38;;;;;;;4.10;3.70;;;25.00;27.00;;;;;;5059288;28;20040;-65
2021/01/19 12:51:06;;;;;;;4.18;3.75;;;25.00;26.70;;;;;;5059197;28;20083;-64
2021/01/19 12:53:33;;;;;;;5.80;4.05;;;25.00;26.80;;;;;;5076869;28;20079;-65
2021/01/19 12:55:59;;;;;;;4.15;3.22;;;25.00;26.70;;;;;;5074301;28;20098;-64
2021/01/19 12:58:26;;;;;;;4.45;3.67;;;25.00;26.60;;;;;;5055804;28;20045;-64
2021/01/19 13:00:53;;;;;;;4.00;3.38;;;25.00;26.40;;;;;;5057740;28;20108;-64
2021/01/19 13:03:19;;;;;;;6.15;4.00;;;25.00;26.40;;;;;;5056213;28;20055;-66
2021/01/19 13:05:47;;;;;;;4.43;3.95;;;25.00;26.30;;;;;;5058887;28;20048;-66
2021/01/19 13:08:14;;;;;;;5.88;4.13;;;25.00;26.00;;;;;;5052749;28;20152;-66
2021/01/19 13:10:41;;;;;;;5.53;4.07;;;25.00;25.90;;;;;;5059734;28;20106;-65
2021/01/19 13:13:07;;;;;;;8.13;4.35;;;25.00;25.80;;;;;;5056438;28;20147;-67
2021/01/19 13:15:35;;;;;;;5.45;4.22;;;25.00;25.70;;;;;;5055002;28;20759;-68